Time,TemperatureF,DewpointF,PressureIn,WindDirection,WindDirectionDegrees,WindSpeedMPH,WindSpeedGustMPH,Humidity,HourlyPrecipIn,Conditions,Clouds,dailyrainin,SoftwareType,DateUTC
2013-11-24 00:01:00,32.7,15.3,29.93,WNW,289,13.0,18.0,48,0.00,,,0.01,meteohub,2013-11-24 05:01:00,
2013-11-24 00:02:00,32.5,15.1,29.93,NW,318,7.0,18.0,48,0.00,,,0.01,meteohub,2013-11-24 05:02:00,
2013-11-24 00:07:00,32.5,15.1,29.93,NNW,335,8.0,19.0,48,0.00,,,0.00,meteohub,2013-11-24 05:07:00,
2013-11-24 00:12:00,32.5,15.1,29.93,NW,313,6.0,19.0,48,0.00,,,0.00,meteohub,2013-11-24 05:12:00,
2013-11-24 00:17:00,32.4,14.9,29.93,NNW,329,5.0,19.0,48,0.00,,,0.00,meteohub,2013-11-24 05:17:00,
2013-11-24 00:22:00,32.2,14.7,29.93,NNW,339,10.0,18.0,48,0.00,,,0.00,meteohub,2013-11-24 05:22:00,
2013-11-24 00:27:00,31.8,14.9,29.93,NW,310,7.0,18.0,49,0.00,,,0.00,meteohub,2013-11-24 05:27:00,
2013-11-24 00:32:00,31.6,15.6,29.94,NW,323,9.0,21.0,51,0.00,,,0.00,meteohub,2013-11-24 05:32:00,
2013-11-24 00:37:00,31.5,16.7,29.94,NW,324,14.0,23.0,54,0.00,,,0.00,meteohub,2013-11-24 05:37:00,
2013-11-24 00:42:00,31.5,17.2,29.94,NNW,338,10.0,23.0,55,0.00,,,0.00,meteohub,2013-11-24 05:42:00,
2013-11-24 00:47:00,31.3,16.2,29.94,WNW,301,14.0,23.0,53,0.00,,,0.00,meteohub,2013-11-24 05:47:00,
2013-11-24 00:52:00,31.3,15.6,29.94,WNW,291,13.0,24.0,52,0.00,,,0.00,meteohub,2013-11-24 05:52:00,
2013-11-24 00:57:00,31.1,15.1,29.94,WNW,294,13.0,24.0,51,0.00,,,0.00,meteohub,2013-11-24 05:57:00,
2013-11-24 00:58:00,30.9,14.9,29.94,NNW,338,17.0,24.0,51,0.00,,,0.00,meteohub,2013-11-24 05:58:00,
2013-11-24 01:03:00,30.7,15.3,29.94,NW,323,13.0,25.0,52,0.00,,,0.00,meteohub,2013-11-24 06:03:00,
2013-11-24 01:08:00,30.7,16.0,29.95,NW,312,11.0,25.0,54,0.00,,,0.00,meteohub,2013-11-24 06:08:00,
2013-11-24 01:13:00,30.6,16.0,29.95,NNW,343,13.0,25.0,54,0.00,,,0.00,meteohub,2013-11-24 06:13:00,
2013-11-24 01:18:00,30.6,16.3,29.95,NW,322,7.0,25.0,55,0.00,,,0.00,meteohub,2013-11-24 06:18:00,
2013-11-24 01:23:00,30.6,16.7,29.95,NW,318,11.0,25.0,56,0.00,,,0.00,meteohub,2013-11-24 06:23:00,
2013-11-24 01:28:00,30.4,16.5,29.95,West,279,11.0,23.0,56,0.00,,,0.00,meteohub,2013-11-24 06:28:00,
2013-11-24 01:33:00,29.8,16.0,29.95,NW,312,14.0,25.0,56,0.00,,,0.00,meteohub,2013-11-24 06:33:00,
2013-11-24 01:38:00,29.7,15.4,29.95,NW,324,12.0,25.0,55,0.00,,,0.00,meteohub,2013-11-24 06:38:00,
2013-11-24 01:43:00,29.3,13.8,29.96,NW,313,11.0,25.0,52,0.00,,,0.00,meteohub,2013-11-24 06:43:00,
2013-11-24 01:49:00,29.1,13.3,29.96,NW,320,6.0,22.0,51,0.00,,,0.00,meteohub,2013-11-24 06:49:00,
2013-11-24 01:54:00,28.9,13.1,29.95,NW,321,14.0,23.0,51,0.00,,,0.00,meteohub,2013-11-24 06:54:00,
2013-11-24 01:59:00,28.8,12.9,29.96,NW,318,10.0,23.0,51,0.00,,,0.00,meteohub,2013-11-24 06:59:00,
2013-11-24 02:04:00,28.8,14.2,29.96,NNW,336,12.0,20.0,54,0.00,,,0.00,meteohub,2013-11-24 07:04:00,
2013-11-24 02:09:00,28.8,15.1,29.96,NW,321,11.0,20.0,56,0.00,,,0.00,meteohub,2013-11-24 07:09:00,
2013-11-24 02:14:00,28.8,15.1,29.96,NNW,330,15.0,19.0,56,0.00,,,0.00,meteohub,2013-11-24 07:14:00,
2013-11-24 02:19:00,28.6,15.3,29.96,WNW,288,11.0,22.0,57,0.00,,,0.00,meteohub,2013-11-24 07:19:00,
2013-11-24 02:24:00,28.6,14.9,29.96,NNW,330,11.0,22.0,56,0.00,,,0.00,meteohub,2013-11-24 07:24:00,
2013-11-24 02:29:00,28.8,14.7,29.96,NW,318,16.0,22.0,55,0.00,,,0.00,meteohub,2013-11-24 07:29:00,
2013-11-24 02:34:00,28.6,14.0,29.97,NW,318,11.0,26.0,54,0.00,,,0.00,meteohub,2013-11-24 07:34:00,
2013-11-24 02:39:00,28.6,14.0,29.97,NW,326,16.0,26.0,54,0.00,,,0.00,meteohub,2013-11-24 07:39:00,
2013-11-24 02:44:00,28.4,13.8,29.97,NNW,335,5.0,24.0,54,0.00,,,0.00,meteohub,2013-11-24 07:44:00,
2013-11-24 02:49:00,28.2,13.3,29.97,NW,305,10.0,24.0,53,0.00,,,0.00,meteohub,2013-11-24 07:49:00,
2013-11-24 02:54:00,28.2,13.6,29.97,NW,326,8.0,24.0,54,0.00,,,0.00,meteohub,2013-11-24 07:54:00,
2013-11-24 02:59:00,28.2,12.9,29.97,NNW,332,10.0,19.0,52,0.00,,,0.00,meteohub,2013-11-24 07:59:00,
2013-11-24 03:04:00,28.2,12.9,29.97,NW,307,10.0,24.0,52,0.00,,,0.00,meteohub,2013-11-24 08:04:00,
2013-11-24 03:09:00,28.0,11.8,29.97,NW,319,11.0,24.0,50,0.00,,,0.00,meteohub,2013-11-24 08:09:00,
2013-11-24 03:14:00,27.9,10.8,29.97,WNW,285,15.0,24.0,48,0.00,,,0.00,meteohub,2013-11-24 08:14:00,
2013-11-24 03:19:00,27.7,10.0,29.96,NNW,332,13.0,24.0,47,0.00,,,0.00,meteohub,2013-11-24 08:19:00,
2013-11-24 03:24:00,27.5,9.9,29.96,NNE,21,7.0,24.0,47,0.00,,,0.00,meteohub,2013-11-24 08:24:00,
2013-11-24 03:29:00,27.3,10.8,29.97,NW,315,11.0,26.0,49,0.00,,,0.00,meteohub,2013-11-24 08:29:00,
2013-11-24 03:34:00,27.1,10.0,29.97,WNW,303,8.0,26.0,48,0.00,,,0.00,meteohub,2013-11-24 08:34:00,
2013-11-24 03:39:00,27.0,9.9,29.96,NW,316,9.0,26.0,48,0.00,,,0.00,meteohub,2013-11-24 08:39:00,
2013-11-24 03:44:00,27.0,9.5,29.96,NW,311,13.0,30.0,47,0.00,,,0.00,meteohub,2013-11-24 08:44:00,
2013-11-24 03:49:00,26.8,9.3,29.96,NNW,347,20.0,30.0,47,0.00,,,0.00,meteohub,2013-11-24 08:49:00,
2013-11-24 03:54:00,26.8,9.3,29.96,NW,312,9.0,30.0,47,0.00,,,0.00,meteohub,2013-11-24 08:54:00,
2013-11-24 03:59:00,26.4,9.9,29.97,NNW,331,12.0,25.0,49,0.00,,,0.00,meteohub,2013-11-24 08:59:00,
2013-11-24 04:04:00,26.2,9.1,29.97,NNW,337,15.0,26.0,48,0.00,,,0.00,meteohub,2013-11-24 09:04:00,
2013-11-24 04:09:00,26.2,9.7,29.97,NW,316,10.0,26.0,49,0.00,,,0.00,meteohub,2013-11-24 09:09:00,
2013-11-24 04:14:00,26.2,9.7,29.97,North,8,17.0,26.0,49,0.00,,,0.00,meteohub,2013-11-24 09:14:00,
2013-11-24 04:19:00,26.2,9.7,29.97,NW,324,8.0,23.0,49,0.00,,,0.00,meteohub,2013-11-24 09:19:00,
2013-11-24 04:24:00,26.2,9.7,29.98,NNW,342,9.0,23.0,49,0.00,,,0.00,meteohub,2013-11-24 09:24:00,
2013-11-24 04:29:00,26.2,9.1,29.98,WNW,300,18.0,29.0,48,0.00,,,0.00,meteohub,2013-11-24 09:29:00,
2013-11-24 04:34:00,26.2,9.1,29.98,NW,304,9.0,29.0,48,0.00,,,0.00,meteohub,2013-11-24 09:34:00,
2013-11-24 04:39:00,26.1,9.1,29.98,WNW,285,19.0,29.0,48,0.00,,,0.00,meteohub,2013-11-24 09:39:00,
2013-11-24 04:44:00,26.1,9.1,29.99,NW,324,17.0,24.0,48,0.00,,,0.00,meteohub,2013-11-24 09:44:00,
2013-11-24 04:49:00,26.1,9.5,29.98,WNW,299,8.0,28.0,49,0.00,,,0.00,meteohub,2013-11-24 09:49:00,
2013-11-24 04:54:00,25.9,9.3,29.98,NNW,337,9.0,29.0,49,0.00,,,0.00,meteohub,2013-11-24 09:54:00,
2013-11-24 04:59:00,25.9,9.0,29.99,North,359,17.0,29.0,48,0.00,,,0.00,meteohub,2013-11-24 09:59:00,
2013-11-24 05:04:00,25.7,9.1,29.98,NW,314,8.0,22.0,49,0.00,,,0.00,meteohub,2013-11-24 10:04:00,
2013-11-24 05:09:00,25.7,8.8,29.98,NW,326,13.0,22.0,48,0.00,,,0.00,meteohub,2013-11-24 10:09:00,
2013-11-24 05:14:00,25.7,8.8,29.98,NNW,333,7.0,23.0,48,0.00,,,0.00,meteohub,2013-11-24 10:14:00,
2013-11-24 05:19:00,25.5,8.6,29.99,NW,306,9.0,23.0,48,0.00,,,0.00,meteohub,2013-11-24 10:19:00,
2013-11-24 05:24:00,25.5,9.0,29.99,West,274,10.0,23.0,49,0.00,,,0.00,meteohub,2013-11-24 10:24:00,
2013-11-24 05:30:00,25.7,8.8,29.99,North,354,9.0,21.0,48,0.00,,,0.00,meteohub,2013-11-24 10:30:00,
2013-11-24 05:35:00,25.5,9.0,29.99,NNW,336,11.0,28.0,49,0.00,,,0.00,meteohub,2013-11-24 10:35:00,
2013-11-24 05:40:00,25.5,9.0,29.99,NNW,346,7.0,28.0,49,0.00,,,0.00,meteohub,2013-11-24 10:40:00,
2013-11-24 05:45:00,25.3,8.8,29.99,NW,322,12.0,28.0,49,0.00,,,0.00,meteohub,2013-11-24 10:45:00,
2013-11-24 05:50:00,25.3,9.3,29.99,NNW,345,11.0,20.0,50,0.00,,,0.00,meteohub,2013-11-24 10:50:00,
2013-11-24 05:55:00,25.3,9.3,29.99,West,266,12.0,20.0,50,0.00,,,0.00,meteohub,2013-11-24 10:55:00,
2013-11-24 06:00:00,25.2,9.5,29.99,WNW,301,6.0,20.0,51,0.00,,,0.00,meteohub,2013-11-24 11:00:00,
2013-11-24 06:05:00,25.2,9.5,29.99,WNW,301,18.0,20.0,51,0.00,,,0.00,meteohub,2013-11-24 11:05:00,
2013-11-24 06:10:00,25.2,9.1,30.00,WNW,301,10.0,20.0,50,0.00,,,0.00,meteohub,2013-11-24 11:10:00,
2013-11-24 06:15:00,25.2,9.5,30.00,WSW,244,19.0,22.0,51,0.00,,,0.00,meteohub,2013-11-24 11:15:00,
2013-11-24 06:20:00,25.2,9.1,30.00,WNW,303,10.0,22.0,50,0.00,,,0.00,meteohub,2013-11-24 11:20:00,
2013-11-24 06:25:00,25.2,9.5,30.01,NW,318,11.0,20.0,51,0.00,,,0.00,meteohub,2013-11-24 11:25:00,
2013-11-24 06:30:00,25.2,10.0,30.01,NW,305,10.0,22.0,52,0.00,,,0.00,meteohub,2013-11-24 11:30:00,
2013-11-24 06:35:00,25.2,10.0,30.01,NW,320,14.0,22.0,52,0.00,,,0.00,meteohub,2013-11-24 11:35:00,
2013-11-24 06:40:00,25.3,10.2,30.01,NNW,330,10.0,22.0,52,0.00,,,0.00,meteohub,2013-11-24 11:40:00,
2013-11-24 06:45:00,25.3,10.2,30.01,WNW,293,10.0,28.0,52,0.00,,,0.00,meteohub,2013-11-24 11:45:00,
2013-11-24 06:50:00,25.3,10.2,30.02,NW,307,12.0,28.0,52,0.00,,,0.00,meteohub,2013-11-24 11:50:00,
2013-11-24 06:55:00,25.3,10.6,30.02,WNW,289,11.0,30.0,53,0.00,,,0.00,meteohub,2013-11-24 11:55:00,
2013-11-24 07:00:00,25.3,10.6,30.03,WNW,299,15.0,30.0,53,0.00,,,0.00,meteohub,2013-11-24 12:00:00,
2013-11-24 07:05:00,25.3,10.2,30.02,NW,326,18.0,30.0,52,0.00,,,0.00,meteohub,2013-11-24 12:05:00,
2013-11-24 07:10:00,25.3,10.2,30.03,NNW,340,11.0,27.0,52,0.00,,,0.00,meteohub,2013-11-24 12:10:00,
2013-11-24 07:15:00,25.3,10.6,30.03,WNW,301,9.0,24.0,53,0.00,,,0.00,meteohub,2013-11-24 12:15:00,
2013-11-24 07:20:00,25.2,10.4,30.03,NW,308,8.0,24.0,53,0.00,,,0.00,meteohub,2013-11-24 12:20:00,
2013-11-24 07:25:00,25.2,10.4,30.03,NW,316,14.0,25.0,53,0.00,,,0.00,meteohub,2013-11-24 12:25:00,
2013-11-24 07:30:00,25.2,10.9,30.03,NNW,340,13.0,25.0,54,0.00,,,0.00,meteohub,2013-11-24 12:30:00,
2013-11-24 07:35:00,25.3,10.6,30.03,NNW,330,15.0,25.0,53,0.00,,,0.00,meteohub,2013-11-24 12:35:00,
2013-11-24 07:40:00,25.3,10.2,30.04,NNW,335,8.0,27.0,52,0.00,,,0.00,meteohub,2013-11-24 12:40:00,
2013-11-24 07:45:00,25.3,10.2,30.03,NNW,335,13.0,27.0,52,0.00,,,0.00,meteohub,2013-11-24 12:45:00,
2013-11-24 07:50:00,25.3,10.6,30.04,NNW,333,10.0,30.0,53,0.00,,,0.00,meteohub,2013-11-24 12:50:00,
2013-11-24 07:55:00,25.5,10.8,30.04,NW,322,13.0,30.0,53,0.00,,,0.00,meteohub,2013-11-24 12:55:00,
2013-11-24 08:00:00,25.7,10.6,30.04,NNW,337,14.0,25.0,52,0.00,,,0.00,meteohub,2013-11-24 13:00:00,
2013-11-24 08:05:00,25.9,11.1,30.04,NW,310,17.0,25.0,53,0.00,,,0.00,meteohub,2013-11-24 13:05:00,
2013-11-24 08:10:00,26.1,10.8,30.04,NNW,347,17.0,22.0,52,0.00,,,0.00,meteohub,2013-11-24 13:10:00,
2013-11-24 08:15:00,26.1,10.0,30.03,West,266,17.0,22.0,50,0.00,,,0.00,meteohub,2013-11-24 13:15:00,
2013-11-24 08:20:00,26.1,10.0,30.04,NNW,347,21.0,24.0,50,0.00,,,0.00,meteohub,2013-11-24 13:20:00,
2013-11-24 08:25:00,26.1,9.5,30.04,WNW,291,11.0,29.0,49,0.00,,,0.00,meteohub,2013-11-24 13:25:00,
2013-11-24 08:30:00,26.2,9.7,30.04,NW,322,13.0,29.0,49,0.00,,,0.00,meteohub,2013-11-24 13:30:00,
2013-11-24 08:35:00,26.2,9.7,30.04,NNW,340,20.0,29.0,49,0.00,,,0.00,meteohub,2013-11-24 13:35:00,
2013-11-24 08:40:00,26.2,10.2,30.05,NNW,335,17.0,25.0,50,0.00,,,0.00,meteohub,2013-11-24 13:40:00,
2013-11-24 08:45:00,26.4,9.9,30.05,North,4,22.0,26.0,49,0.00,,,0.00,meteohub,2013-11-24 13:45:00,
2013-11-24 08:50:00,26.2,9.1,30.05,NNW,347,19.0,28.0,48,0.00,,,0.00,meteohub,2013-11-24 13:50:00,
2013-11-24 08:55:00,26.4,9.9,30.04,NNW,327,18.0,28.0,49,0.00,,,0.00,meteohub,2013-11-24 13:55:00,
2013-11-24 09:00:00,26.4,9.9,30.05,NNW,327,17.0,28.0,49,0.00,,,0.00,meteohub,2013-11-24 14:00:00,
2013-11-24 09:05:00,26.4,9.9,30.05,NNW,348,14.0,28.0,49,0.00,,,0.00,meteohub,2013-11-24 14:05:00,
2013-11-24 09:10:00,26.4,9.0,30.05,NW,320,10.0,28.0,47,0.00,,,0.00,meteohub,2013-11-24 14:10:00,
2013-11-24 09:15:00,26.2,9.1,30.05,NW,308,19.0,29.0,48,0.00,,,0.00,meteohub,2013-11-24 14:15:00,
2013-11-24 09:21:00,26.4,9.3,30.05,NW,310,9.0,31.0,48,0.00,,,0.00,meteohub,2013-11-24 14:21:00,
2013-11-24 09:26:00,26.8,10.2,30.05,North,359,7.0,31.0,49,0.00,,,0.00,meteohub,2013-11-24 14:26:00,
2013-11-24 09:31:00,27.1,10.0,30.05,NNW,339,19.0,27.0,48,0.00,,,0.00,meteohub,2013-11-24 14:31:00,
2013-11-24 09:36:00,27.0,9.9,30.06,NW,322,11.0,32.0,48,0.00,,,0.00,meteohub,2013-11-24 14:36:00,
2013-11-24 09:41:00,27.0,9.5,30.06,WNW,303,19.0,32.0,47,0.00,,,0.00,meteohub,2013-11-24 14:41:00,
2013-11-24 09:46:00,27.0,9.5,30.06,WNW,287,12.0,32.0,47,0.00,,,0.00,meteohub,2013-11-24 14:46:00,
2013-11-24 09:51:00,27.3,9.3,30.06,NW,317,14.0,27.0,46,0.00,,,0.00,meteohub,2013-11-24 14:51:00,
2013-11-24 09:56:00,27.0,8.4,30.06,NNW,335,11.0,29.0,45,0.00,,,0.00,meteohub,2013-11-24 14:56:00,
2013-11-24 10:01:00,27.0,8.4,30.06,West,280,6.0,29.0,45,0.00,,,0.00,meteohub,2013-11-24 15:01:00,
2013-11-24 10:06:00,27.1,8.6,30.06,NW,322,20.0,32.0,45,0.00,,,0.00,meteohub,2013-11-24 15:06:00,
2013-11-24 10:11:00,27.1,9.5,30.06,NNW,336,14.0,32.0,47,0.00,,,0.00,meteohub,2013-11-24 15:11:00,
2013-11-24 10:16:00,27.9,9.7,30.06,WNW,299,5.0,32.0,46,0.00,,,0.00,meteohub,2013-11-24 15:16:00,
2013-11-24 10:21:00,27.3,9.3,30.06,NNW,335,10.0,25.0,46,0.00,,,0.00,meteohub,2013-11-24 15:21:00,
2013-11-24 10:26:00,26.8,9.3,30.06,NW,308,14.0,30.0,47,0.00,,,0.00,meteohub,2013-11-24 15:26:00,
2013-11-24 10:31:00,26.4,9.3,30.07,North,359,17.0,30.0,48,0.00,,,0.00,meteohub,2013-11-24 15:31:00,
2013-11-24 10:36:00,26.4,9.0,30.07,WNW,303,12.0,30.0,47,0.00,,,0.00,meteohub,2013-11-24 15:36:00,
2013-11-24 10:41:00,26.8,8.2,30.07,NW,322,15.0,30.0,45,0.00,,,0.00,meteohub,2013-11-24 15:41:00,
2013-11-24 10:46:00,27.0,9.0,30.07,NNW,333,11.0,30.0,46,0.00,,,0.00,meteohub,2013-11-24 15:46:00,
2013-11-24 10:51:00,26.8,8.2,30.07,North,354,16.0,33.0,45,0.00,,,0.00,meteohub,2013-11-24 15:51:00,
2013-11-24 10:56:00,26.8,8.8,30.07,NNW,330,17.0,33.0,46,0.00,,,0.00,meteohub,2013-11-24 15:56:00,
2013-11-24 11:01:00,27.1,8.6,30.06,NNW,334,15.0,33.0,45,0.00,,,0.00,meteohub,2013-11-24 16:01:00,
2013-11-24 11:06:00,27.1,8.6,30.06,NNW,337,14.0,33.0,45,0.00,,,0.00,meteohub,2013-11-24 16:06:00,
2013-11-24 11:11:00,27.3,8.8,30.06,North,359,17.0,33.0,45,0.00,,,0.00,meteohub,2013-11-24 16:11:00,
2013-11-24 11:16:00,27.5,9.0,30.06,NNE,22,10.0,30.0,45,0.00,,,0.00,meteohub,2013-11-24 16:16:00,
2013-11-24 11:21:00,27.7,8.6,30.06,NNW,343,18.0,30.0,44,0.00,,,0.00,meteohub,2013-11-24 16:21:00,
2013-11-24 11:26:00,27.7,8.1,30.06,NNW,337,16.0,30.0,43,0.00,,,0.00,meteohub,2013-11-24 16:26:00,
2013-11-24 11:31:00,28.0,9.0,30.06,NW,316,14.0,29.0,44,0.00,,,0.00,meteohub,2013-11-24 16:31:00,
2013-11-24 11:36:00,28.0,9.0,30.06,NW,320,30.0,30.0,44,0.00,,,0.00,meteohub,2013-11-24 16:36:00,
2013-11-24 11:41:00,28.0,9.0,30.06,NW,326,14.0,30.0,44,0.00,,,0.00,meteohub,2013-11-24 16:41:00,
2013-11-24 11:46:00,28.2,8.6,30.06,NW,314,22.0,30.0,43,0.00,,,0.00,meteohub,2013-11-24 16:46:00,
2013-11-24 11:51:00,28.0,8.4,30.06,NW,306,19.0,32.0,43,0.00,,,0.00,meteohub,2013-11-24 16:51:00,
2013-11-24 11:56:00,28.0,7.9,30.06,NNW,330,24.0,32.0,42,0.00,,,0.00,meteohub,2013-11-24 16:56:00,
2013-11-24 12:01:00,28.0,7.9,30.06,NNW,337,25.0,30.0,42,0.00,,,0.00,meteohub,2013-11-24 17:01:00,
2013-11-24 12:06:00,28.2,7.5,30.06,WNW,297,17.0,30.0,41,0.00,,,0.00,meteohub,2013-11-24 17:06:00,
2013-11-24 12:11:00,28.2,7.0,30.06,NW,314,15.0,28.0,40,0.00,,,0.00,meteohub,2013-11-24 17:11:00,
2013-11-24 12:17:00,28.2,6.4,30.06,NW,308,22.0,29.0,39,0.00,,,0.00,meteohub,2013-11-24 17:17:00,
2013-11-24 12:22:00,28.4,6.6,30.06,NNW,339,14.0,29.0,39,0.00,,,0.00,meteohub,2013-11-24 17:22:00,
2013-11-24 12:27:00,28.6,6.8,30.07,North,359,23.0,29.0,39,0.00,,,0.00,meteohub,2013-11-24 17:27:00,
2013-11-24 12:32:00,28.6,5.5,30.06,NNE,25,14.0,30.0,37,0.00,,,0.00,meteohub,2013-11-24 17:32:00,
2013-11-24 12:37:00,28.6,5.5,30.07,North,354,27.0,31.0,37,0.00,,,0.00,meteohub,2013-11-24 17:37:00,
2013-11-24 12:42:00,28.2,5.9,30.06,NW,317,14.0,33.0,38,0.00,,,0.00,meteohub,2013-11-24 17:42:00,
2013-11-24 12:47:00,28.8,5.2,30.07,North,349,19.0,33.0,36,0.00,,,0.00,meteohub,2013-11-24 17:47:00,
2013-11-24 12:52:00,28.6,5.5,30.06,NW,324,26.0,34.0,37,0.00,,,0.00,meteohub,2013-11-24 17:52:00,
2013-11-24 12:57:00,28.9,5.4,30.06,NNW,345,12.0,34.0,36,0.00,,,0.00,meteohub,2013-11-24 17:57:00,
2013-11-24 13:02:00,28.9,4.6,30.06,North,354,14.0,34.0,35,0.00,,,0.00,meteohub,2013-11-24 18:02:00,
2013-11-24 13:07:00,28.8,5.2,30.07,NNW,337,10.0,29.0,36,0.00,,,0.00,meteohub,2013-11-24 18:07:00,
2013-11-24 13:12:00,28.6,3.7,30.08,NW,326,18.0,31.0,34,0.00,,,0.00,meteohub,2013-11-24 18:12:00,
2013-11-24 13:17:00,28.4,3.0,30.08,NW,312,25.0,34.0,33,0.00,,,0.00,meteohub,2013-11-24 18:17:00,
2013-11-24 13:22:00,28.6,3.7,30.08,NNW,327,17.0,34.0,34,0.00,,,0.00,meteohub,2013-11-24 18:22:00,
2013-11-24 13:27:00,28.9,4.1,30.09,NW,326,17.0,34.0,34,0.00,,,0.00,meteohub,2013-11-24 18:27:00,
2013-11-24 13:32:00,28.9,4.6,30.09,NW,312,17.0,33.0,35,0.00,,,0.00,meteohub,2013-11-24 18:32:00,
2013-11-24 13:37:00,29.1,4.8,30.09,NW,322,12.0,29.0,35,0.00,,,0.00,meteohub,2013-11-24 18:37:00,
2013-11-24 13:42:00,28.9,3.4,30.09,NW,322,20.0,30.0,33,0.00,,,0.00,meteohub,2013-11-24 18:42:00,
2013-11-24 13:47:00,29.1,4.8,30.09,NW,315,19.0,30.0,35,0.00,,,0.00,meteohub,2013-11-24 18:47:00,
2013-11-24 13:52:00,28.9,4.6,30.09,NNE,21,12.0,31.0,35,0.00,,,0.00,meteohub,2013-11-24 18:52:00,
2013-11-24 13:57:00,29.1,5.5,30.09,NNW,342,16.0,31.0,36,0.00,,,0.00,meteohub,2013-11-24 18:57:00,
2013-11-24 14:02:00,28.9,3.4,30.10,NW,311,19.0,31.0,33,0.00,,,0.00,meteohub,2013-11-24 19:02:00,
2013-11-24 14:07:00,28.9,3.4,30.10,NNE,15,12.0,32.0,33,0.00,,,0.00,meteohub,2013-11-24 19:07:00,
2013-11-24 14:12:00,28.9,4.1,30.10,NW,326,26.0,32.0,34,0.00,,,0.00,meteohub,2013-11-24 19:12:00,
2013-11-24 14:17:00,28.9,3.4,30.11,NNW,347,8.0,31.0,33,0.00,,,0.00,meteohub,2013-11-24 19:17:00,
2013-11-24 14:22:00,29.5,5.2,30.11,NNW,328,14.0,30.0,35,0.00,,,0.00,meteohub,2013-11-24 19:22:00,
2013-11-24 14:27:00,29.1,2.8,30.12,North,8,9.0,30.0,32,0.00,,,0.00,meteohub,2013-11-24 19:27:00,
2013-11-24 14:32:00,29.1,2.8,30.11,NNE,27,13.0,27.0,32,0.00,,,0.00,meteohub,2013-11-24 19:32:00,
2013-11-24 14:37:00,29.3,4.5,30.12,WNW,297,14.0,27.0,34,0.00,,,0.00,meteohub,2013-11-24 19:37:00,
2013-11-24 14:42:00,29.1,4.3,30.12,NNW,328,17.0,27.0,34,0.00,,,0.00,meteohub,2013-11-24 19:42:00,
2013-11-24 14:47:00,29.1,4.3,30.12,NW,314,14.0,27.0,34,0.00,,,0.00,meteohub,2013-11-24 19:47:00,
2013-11-24 14:52:00,29.5,5.2,30.13,NW,318,14.0,31.0,35,0.00,,,0.00,meteohub,2013-11-24 19:52:00,
2013-11-24 14:57:00,29.5,3.9,30.13,North,354,16.0,31.0,33,0.00,,,0.00,meteohub,2013-11-24 19:57:00,
2013-11-24 15:02:00,29.1,2.3,30.13,NNW,346,10.0,31.0,31,0.00,,,0.00,meteohub,2013-11-24 20:02:00,
2013-11-24 15:07:00,28.9,1.4,30.13,ENE,66,16.0,33.0,30,0.00,,,0.00,meteohub,2013-11-24 20:07:00,
2013-11-24 15:12:00,28.9,2.8,30.14,North,354,12.0,33.0,32,0.00,,,0.00,meteohub,2013-11-24 20:12:00,
2013-11-24 15:17:00,28.9,2.8,30.14,NNW,337,10.0,31.0,32,0.00,,,0.00,meteohub,2013-11-24 20:17:00,
2013-11-24 15:22:00,28.9,3.4,30.15,NNE,22,3.0,31.0,33,0.00,,,0.00,meteohub,2013-11-24 20:22:00,
2013-11-24 15:27:00,28.8,3.9,30.15,NE,39,8.0,27.0,34,0.00,,,0.00,meteohub,2013-11-24 20:27:00,
2013-11-24 15:32:00,28.9,4.6,30.15,NW,313,9.0,25.0,35,0.00,,,0.00,meteohub,2013-11-24 20:32:00,
2013-11-24 15:37:00,28.8,1.9,30.16,NW,312,16.0,28.0,31,0.00,,,0.00,meteohub,2013-11-24 20:37:00,
2013-11-24 15:42:00,28.6,1.8,30.16,NNW,339,16.0,28.0,31,0.00,,,0.00,meteohub,2013-11-24 20:42:00,
2013-11-24 15:47:00,28.6,3.2,30.16,NW,319,5.0,28.0,33,0.00,,,0.00,meteohub,2013-11-24 20:47:00,
2013-11-24 15:52:00,28.6,3.7,30.17,NW,314,14.0,27.0,34,0.00,,,0.00,meteohub,2013-11-24 20:52:00,
2013-11-24 15:57:00,28.6,2.5,30.17,NW,310,18.0,22.0,32,0.00,,,0.00,meteohub,2013-11-24 20:57:00,
2013-11-24 16:02:00,28.6,2.5,30.17,NW,308,13.0,32.0,32,0.00,,,0.00,meteohub,2013-11-24 21:02:00,
2013-11-24 16:07:00,28.4,2.3,30.17,NNW,334,14.0,32.0,32,0.00,,,0.00,meteohub,2013-11-24 21:07:00,
2013-11-24 16:12:00,28.2,2.1,30.17,NNW,343,14.0,32.0,32,0.00,,,0.00,meteohub,2013-11-24 21:12:00,
2013-11-24 16:17:00,28.0,1.9,30.18,NW,317,17.0,31.0,32,0.00,,,0.00,meteohub,2013-11-24 21:17:00,
2013-11-24 16:22:00,28.2,2.8,30.18,NW,317,17.0,34.0,33,0.00,,,0.00,meteohub,2013-11-24 21:22:00,
2013-11-24 16:27:00,28.0,3.2,30.19,NNW,338,23.0,34.0,34,0.00,,,0.00,meteohub,2013-11-24 21:27:00,
2013-11-24 16:32:00,28.0,1.9,30.19,NNW,328,13.0,33.0,32,0.00,,,0.00,meteohub,2013-11-24 21:32:00,
2013-11-24 16:37:00,28.0,3.2,30.19,NW,312,12.0,33.0,34,0.00,,,0.00,meteohub,2013-11-24 21:37:00,
2013-11-24 16:42:00,28.0,3.9,30.20,NNW,328,12.0,33.0,35,0.00,,,0.00,meteohub,2013-11-24 21:42:00,
2013-11-24 16:47:00,28.0,3.9,30.20,North,354,24.0,29.0,35,0.00,,,0.00,meteohub,2013-11-24 21:47:00,
2013-11-24 16:52:00,28.0,3.2,30.21,NW,317,13.0,29.0,34,0.00,,,0.00,meteohub,2013-11-24 21:52:00,
2013-11-24 16:57:00,27.9,3.7,30.21,NNW,337,19.0,29.0,35,0.00,,,0.00,meteohub,2013-11-24 21:57:00,
2013-11-24 17:02:00,28.0,3.2,30.22,NNW,341,15.0,29.0,34,0.00,,,0.00,meteohub,2013-11-24 22:02:00,
2013-11-24 17:07:00,28.0,1.9,30.22,NW,313,13.0,33.0,32,0.00,,,0.00,meteohub,2013-11-24 22:07:00,
2013-11-24 17:12:00,28.0,2.7,30.21,North,354,13.0,33.0,33,0.00,,,0.00,meteohub,2013-11-24 22:12:00,
2013-11-24 17:17:00,27.9,3.2,30.22,North,4,8.0,33.0,34,0.00,,,0.00,meteohub,2013-11-24 22:17:00,
2013-11-24 17:22:00,27.9,3.7,30.22,North,4,7.0,25.0,35,0.00,,,0.00,meteohub,2013-11-24 22:22:00,
2013-11-24 17:27:00,27.7,3.6,30.22,NW,310,17.0,25.0,35,0.00,,,0.00,meteohub,2013-11-24 22:27:00,
2013-11-24 17:32:00,27.7,3.6,30.23,NNW,335,18.0,24.0,35,0.00,,,0.00,meteohub,2013-11-24 22:32:00,
2013-11-24 17:37:00,27.7,4.3,30.23,NNW,328,10.0,24.0,36,0.00,,,0.00,meteohub,2013-11-24 22:37:00,
2013-11-24 17:42:00,27.7,4.8,30.23,NW,311,6.0,24.0,37,0.00,,,0.00,meteohub,2013-11-24 22:42:00,
2013-11-24 17:47:00,27.7,4.8,30.23,NW,306,14.0,23.0,37,0.00,,,0.00,meteohub,2013-11-24 22:47:00,
2013-11-24 17:52:00,27.7,4.8,30.23,NNW,337,12.0,23.0,37,0.00,,,0.00,meteohub,2013-11-24 22:52:00,
2013-11-24 17:57:00,27.7,5.4,30.24,NNW,337,12.0,23.0,38,0.00,,,0.00,meteohub,2013-11-24 22:57:00,
2013-11-24 18:02:00,27.5,4.6,30.24,NW,320,11.0,22.0,37,0.00,,,0.00,meteohub,2013-11-24 23:02:00,
2013-11-24 18:07:00,27.5,5.2,30.24,North,9,6.0,17.0,38,0.00,,,0.00,meteohub,2013-11-24 23:07:00,
2013-11-24 18:12:00,27.5,5.2,30.25,NW,319,7.0,16.0,38,0.00,,,0.00,meteohub,2013-11-24 23:12:00,
2013-11-24 18:17:00,27.5,5.2,30.25,NW,323,6.0,20.0,38,0.00,,,0.00,meteohub,2013-11-24 23:17:00,
2013-11-24 18:22:00,27.5,4.6,30.25,NW,326,8.0,20.0,37,0.00,,,0.00,meteohub,2013-11-24 23:22:00,
2013-11-24 18:27:00,27.7,4.3,30.25,NW,305,13.0,26.0,36,0.00,,,0.00,meteohub,2013-11-24 23:27:00,
2013-11-24 18:32:00,27.7,5.4,30.25,NNW,337,13.0,26.0,38,0.00,,,0.00,meteohub,2013-11-24 23:32:00,
2013-11-24 18:37:00,27.5,5.2,30.25,NW,316,9.0,26.0,38,0.00,,,0.00,meteohub,2013-11-24 23:37:00,
2013-11-24 18:42:00,27.5,5.2,30.25,WNW,299,13.0,24.0,38,0.00,,,0.00,meteohub,2013-11-24 23:42:00,
2013-11-24 18:47:00,27.5,5.2,30.26,NW,314,13.0,24.0,38,0.00,,,0.00,meteohub,2013-11-24 23:47:00,
2013-11-24 18:52:00,27.5,5.2,30.27,NNW,345,16.0,24.0,38,0.00,,,0.00,meteohub,2013-11-24 23:52:00,
2013-11-24 18:57:00,27.3,5.5,30.27,NNE,14,12.0,24.0,39,0.00,,,0.00,meteohub,2013-11-24 23:57:00,
2013-11-24 19:03:00,27.3,5.5,30.27,NNW,330,12.0,24.0,39,0.00,,,0.00,meteohub,2013-11-25 00:03:00,
2013-11-24 19:08:00,27.3,5.5,30.27,NNW,342,16.0,23.0,39,0.00,,,0.00,meteohub,2013-11-25 00:08:00,
2013-11-24 19:13:00,27.3,5.0,30.27,NE,35,11.0,31.0,38,0.00,,,0.00,meteohub,2013-11-25 00:13:00,
2013-11-24 19:18:00,27.3,5.5,30.27,WNW,303,9.0,31.0,39,0.00,,,0.00,meteohub,2013-11-25 00:18:00,
2013-11-24 19:23:00,27.1,6.1,30.28,NNW,339,9.0,26.0,40,0.00,,,0.00,meteohub,2013-11-25 00:23:00,
2013-11-24 19:28:00,27.1,6.1,30.27,NNW,331,29.0,29.0,40,0.00,,,0.00,meteohub,2013-11-25 00:28:00,
2013-11-24 19:33:00,27.1,5.5,30.28,NW,320,17.0,31.0,39,0.00,,,0.00,meteohub,2013-11-25 00:33:00,
2013-11-24 19:38:00,27.1,6.1,30.28,NNW,337,16.0,31.0,40,0.00,,,0.00,meteohub,2013-11-25 00:38:00,
2013-11-24 19:43:00,27.3,7.7,30.28,NNW,344,13.0,31.0,43,0.00,,,0.00,meteohub,2013-11-25 00:43:00,
2013-11-24 19:48:00,27.3,7.7,30.29,NW,305,11.0,26.0,43,0.00,,,0.00,meteohub,2013-11-25 00:48:00,
2013-11-24 19:53:00,27.1,8.1,30.29,North,349,14.0,26.0,44,0.00,,,0.00,meteohub,2013-11-25 00:53:00,
2013-11-24 19:58:00,27.1,8.1,30.29,NW,322,9.0,26.0,44,0.00,,,0.00,meteohub,2013-11-25 00:58:00,
2013-11-24 20:03:00,27.1,8.1,30.29,NW,321,11.0,18.0,44,0.00,,,0.00,meteohub,2013-11-25 01:03:00,
2013-11-24 20:08:00,27.1,8.1,30.29,WNW,300,16.0,18.0,44,0.00,,,0.00,meteohub,2013-11-25 01:08:00,
2013-11-24 20:13:00,27.1,8.1,30.29,NNW,336,11.0,23.0,44,0.00,,,0.00,meteohub,2013-11-25 01:13:00,
2013-11-24 20:18:00,27.1,8.6,30.30,NNW,341,11.0,23.0,45,0.00,,,0.00,meteohub,2013-11-25 01:18:00,
2013-11-24 20:23:00,27.1,9.5,30.29,NW,319,9.0,23.0,47,0.00,,,0.00,meteohub,2013-11-25 01:23:00,
2013-11-24 20:28:00,27.0,9.9,30.29,North,9,9.0,17.0,48,0.00,,,0.00,meteohub,2013-11-25 01:28:00,
2013-11-24 20:33:00,27.0,10.4,30.29,North,359,11.0,25.0,49,0.00,,,0.00,meteohub,2013-11-25 01:33:00,
2013-11-24 20:38:00,26.8,10.2,30.29,NNW,345,8.0,25.0,49,0.00,,,0.00,meteohub,2013-11-25 01:38:00,
2013-11-24 20:44:00,26.6,10.9,30.29,North,4,9.0,25.0,51,0.00,,,0.00,meteohub,2013-11-25 01:44:00,
2013-11-24 20:49:00,26.6,10.9,30.29,NNE,20,4.0,22.0,51,0.00,,,0.00,meteohub,2013-11-25 01:49:00,
2013-11-24 20:54:00,26.4,10.8,30.29,NNW,328,10.0,22.0,51,0.00,,,0.00,meteohub,2013-11-25 01:54:00,
2013-11-24 20:59:00,26.6,11.3,30.30,NW,324,5.0,20.0,52,0.00,,,0.00,meteohub,2013-11-25 01:59:00,
2013-11-24 21:04:00,26.6,10.9,30.30,NW,305,9.0,20.0,51,0.00,,,0.00,meteohub,2013-11-25 02:04:00,
2013-11-24 21:09:00,26.4,10.2,30.29,NNW,341,6.0,20.0,50,0.00,,,0.00,meteohub,2013-11-25 02:09:00,
2013-11-24 21:14:00,26.6,10.4,30.30,WNW,303,4.0,16.0,50,0.00,,,0.00,meteohub,2013-11-25 02:14:00,
2013-11-24 21:19:00,26.4,10.2,30.30,NW,326,8.0,16.0,50,0.00,,,0.00,meteohub,2013-11-25 02:19:00,
2013-11-24 21:24:00,26.4,10.2,30.29,North,11,9.0,15.0,50,0.00,,,0.00,meteohub,2013-11-25 02:24:00,
2013-11-24 21:29:00,26.4,9.9,30.30,WNW,302,6.0,17.0,49,0.00,,,0.00,meteohub,2013-11-25 02:29:00,
2013-11-24 21:34:00,26.2,9.7,30.30,North,350,15.0,20.0,49,0.00,,,0.00,meteohub,2013-11-25 02:34:00,
2013-11-24 21:39:00,26.2,9.7,30.30,NW,322,6.0,20.0,49,0.00,,,0.00,meteohub,2013-11-25 02:39:00,
2013-11-24 21:44:00,26.2,10.2,30.30,WNW,293,8.0,17.0,50,0.00,,,0.00,meteohub,2013-11-25 02:44:00,
2013-11-24 21:49:00,26.2,10.2,30.30,WNW,299,6.0,17.0,50,0.00,,,0.00,meteohub,2013-11-25 02:49:00,
2013-11-24 21:54:00,26.1,9.5,30.30,WNW,301,7.0,17.0,49,0.00,,,0.00,meteohub,2013-11-25 02:54:00,
2013-11-24 21:59:00,26.1,9.5,30.30,WNW,301,6.0,17.0,49,0.00,,,0.00,meteohub,2013-11-25 02:59:00,
2013-11-24 22:04:00,25.9,9.3,30.30,North,8,2.0,17.0,49,0.00,,,0.00,meteohub,2013-11-25 03:04:00,
2013-11-24 22:09:00,25.9,9.3,30.31,NW,310,9.0,17.0,49,0.00,,,0.00,meteohub,2013-11-25 03:09:00,
2013-11-24 22:14:00,25.7,9.1,30.31,North,354,11.0,19.0,49,0.00,,,0.00,meteohub,2013-11-25 03:14:00,
2013-11-24 22:19:00,25.9,9.3,30.31,WNW,303,3.0,19.0,49,0.00,,,0.00,meteohub,2013-11-25 03:19:00,
2013-11-24 22:24:00,25.9,9.3,30.31,NW,313,10.0,19.0,49,0.00,,,0.00,meteohub,2013-11-25 03:24:00,
2013-11-24 22:29:00,25.9,9.3,30.31,NNW,337,10.0,17.0,49,0.00,,,0.00,meteohub,2013-11-25 03:29:00,
2013-11-24 22:34:00,25.9,9.3,30.31,North,354,8.0,17.0,49,0.00,,,0.00,meteohub,2013-11-25 03:34:00,
2013-11-24 22:40:00,25.9,9.3,30.31,NNW,345,17.0,17.0,49,0.00,,,0.00,meteohub,2013-11-25 03:40:00,
2013-11-24 22:45:00,25.9,9.3,30.31,WNW,284,7.0,22.0,49,0.00,,,0.00,meteohub,2013-11-25 03:45:00,
2013-11-24 22:50:00,25.9,9.9,30.31,NNW,332,10.0,22.0,50,0.00,,,0.00,meteohub,2013-11-25 03:50:00,
2013-11-24 22:55:00,25.7,9.7,30.31,NNW,339,17.0,22.0,50,0.00,,,0.00,meteohub,2013-11-25 03:55:00,
2013-11-24 23:00:00,25.9,9.9,30.31,NNW,336,15.0,15.0,50,0.00,,,0.00,meteohub,2013-11-25 04:00:00,
2013-11-24 23:05:00,25.9,10.2,30.32,NW,324,4.0,17.0,51,0.00,,,0.00,meteohub,2013-11-25 04:05:00,
2013-11-24 23:10:00,25.5,9.9,30.32,NW,318,5.0,17.0,51,0.00,,,0.00,meteohub,2013-11-25 04:10:00,
2013-11-24 23:15:00,25.5,9.9,30.32,NNW,332,6.0,16.0,51,0.00,,,0.00,meteohub,2013-11-25 04:15:00,
2013-11-24 23:20:00,25.5,10.4,30.32,NNW,338,7.0,16.0,52,0.00,,,0.00,meteohub,2013-11-25 04:20:00,
2013-11-24 23:25:00,25.3,10.2,30.32,NW,319,6.0,15.0,52,0.00,,,0.00,meteohub,2013-11-25 04:25:00,
2013-11-24 23:30:00,25.5,9.9,30.31,North,4,7.0,15.0,51,0.00,,,0.00,meteohub,2013-11-25 04:30:00,
2013-11-24 23:35:00,25.5,9.9,30.32,NNW,337,13.0,15.0,51,0.00,,,0.00,meteohub,2013-11-25 04:35:00,
2013-11-24 23:40:00,25.3,9.7,30.32,NW,312,7.0,15.0,51,0.00,,,0.00,meteohub,2013-11-25 04:40:00,
2013-11-24 23:45:00,25.3,10.2,30.32,NNE,23,14.0,15.0,52,0.00,,,0.00,meteohub,2013-11-25 04:45:00,
2013-11-24 23:50:00,25.3,9.7,30.32,NNW,327,8.0,21.0,51,0.00,,,0.00,meteohub,2013-11-25 04:50:00,
2013-11-24 23:55:00,25.3,9.7,30.32,NNW,345,4.0,21.0,51,0.00,,,0.00,meteohub,2013-11-25 04:55:00,